createdAt,value
2023-07-01T00:01:36.740Z,100.00
2023-07-01T00:04:05.299Z,100.00
2023-07-01T00:06:33.868Z,100.00
2023-07-01T00:09:11.701Z,100.00
2023-07-01T00:11:40.410Z,100.00
2023-07-01T00:14:17.865Z,100.00
2023-07-01T00:16:46.537Z,100.00
2023-07-01T00:19:15.355Z,100.00
2023-07-01T00:21:43.894Z,100.00
2023-07-01T00:24:12.351Z,100.00
2023-07-01T00:26:52.977Z,100.00
2023-07-01T00:29:21.551Z,100.00
2023-07-01T00:31:49.895Z,100.00
2023-07-01T00:34:21.633Z,100.00
2023-07-01T00:36:50.733Z,100.00
2023-07-01T00:39:19.010Z,100.00
2023-07-01T00:41:54.204Z,100.00
2023-07-01T00:44:23.321Z,100.00
2023-07-01T00:46:55.352Z,100.00
2023-07-01T00:49:24.139Z,100.00
2023-07-01T00:51:52.875Z,100.00
2023-07-01T00:54:22.266Z,100.00
2023-07-01T00:57:00.652Z,100.00
2023-07-01T00:59:38.470Z,100.00
2023-07-01T01:02:17.356Z,100.00
2023-07-01T01:05:20.158Z,100.00
2023-07-01T01:08:00.810Z,100.00
2023-07-01T01:10:32.668Z,100.00
2023-07-01T01:13:05.838Z,100.00
2023-07-01T01:15:55.294Z,100.00
2023-07-01T01:18:25.255Z,100.00
2023-07-01T01:20:53.945Z,100.00
2023-07-01T01:23:33.972Z,100.00
2023-07-01T01:26:14.438Z,100.00
2023-07-01T01:28:55.922Z,100.00
2023-07-01T01:31:24.453Z,100.00
2023-07-01T01:33:53.197Z,100.00
2023-07-01T01:36:42.528Z,100.00
2023-07-01T01:39:15.520Z,100.00
2023-07-01T01:41:59.351Z,100.00
2023-07-01T01:44:48.414Z,100.00
2023-07-01T01:47:28.505Z,100.00
2023-07-01T01:50:22.688Z,100.00
2023-07-01T01:53:09.739Z,100.00
2023-07-01T01:56:03.185Z,100.00
2023-07-01T01:58:52.302Z,100.00
2023-07-01T02:01:30.394Z,100.00
2023-07-01T02:03:59.528Z,100.00
2023-07-01T02:06:28.638Z,100.00
2023-07-01T02:08:57.759Z,100.00
2023-07-01T02:11:26.133Z,100.00
2023-07-01T02:13:58.225Z,100.00
2023-07-01T02:16:47.029Z,100.00
2023-07-01T02:19:16.949Z,100.00
2023-07-01T02:21:51.071Z,100.00
2023-07-01T02:24:22.296Z,100.00
2023-07-01T02:27:14.090Z,100.00
2023-07-01T02:29:45.833Z,100.00
2023-07-01T02:32:17.216Z,100.00
2023-07-01T02:34:48.220Z,100.00
2023-07-01T02:37:19.153Z,100.00
2023-07-01T02:39:48.315Z,100.00
2023-07-01T02:42:20.965Z,100.00
2023-07-01T02:44:55.946Z,100.00
2023-07-01T02:47:33.452Z,100.00
2023-07-01T02:50:02.279Z,100.00
2023-07-01T02:52:32.037Z,100.00
2023-07-01T02:55:02.428Z,100.00
2023-07-01T02:57:30.875Z,100.00
2023-07-01T03:00:00.316Z,100.00
2023-07-01T03:02:30.036Z,100.00
2023-07-01T03:05:01.614Z,100.00
2023-07-01T03:07:30.043Z,100.00
2023-07-01T03:09:58.305Z,100.00
2023-07-01T03:12:27.401Z,100.00
2023-07-01T03:14:56.318Z,100.00
2023-07-01T03:17:26.286Z,100.00
2023-07-01T03:19:54.884Z,100.00
2023-07-01T03:22:26.365Z,100.00
2023-07-01T03:24:54.571Z,100.00
2023-07-01T03:27:23.365Z,100.00
2023-07-01T03:29:51.767Z,100.00
2023-07-01T03:32:20.512Z,100.00
2023-07-01T03:34:49.008Z,100.00
2023-07-01T03:37:18.030Z,100.00
2023-07-01T03:39:46.420Z,100.00
2023-07-01T03:42:14.838Z,100.00
2023-07-01T03:44:43.598Z,100.00
2023-07-01T03:47:20.484Z,100.00
2023-07-01T03:49:49.110Z,100.00
2023-07-01T03:52:17.633Z,100.00
2023-07-01T03:54:48.756Z,100.00
2023-07-01T03:57:17.107Z,100.00
2023-07-01T03:59:45.818Z,100.00
2023-07-01T04:02:14.235Z,100.00
2023-07-01T04:04:43.512Z,100.00
2023-07-01T04:07:14.975Z,100.00
2023-07-01T04:09:43.366Z,100.00
2023-07-01T04:12:12.386Z,100.00
2023-07-01T04:14:40.827Z,100.00
2023-07-01T04:17:09.597Z,100.00
2023-07-01T04:19:38.516Z,100.00
2023-07-01T04:22:08.631Z,100.00
2023-07-01T04:24:36.981Z,100.00
2023-07-01T04:27:05.631Z,100.00
2023-07-01T04:29:47.216Z,100.00
2023-07-01T04:32:16.132Z,100.00
2023-07-01T04:34:46.195Z,100.00
2023-07-01T04:37:14.599Z,100.00
2023-07-01T04:39:51.985Z,100.00
2023-07-01T04:42:23.100Z,100.00
2023-07-01T04:44:57.200Z,100.00
2023-07-01T04:47:26.033Z,100.00
2023-07-01T04:49:57.155Z,100.00
2023-07-01T04:52:28.970Z,100.00
2023-07-01T04:54:58.081Z,100.00
2023-07-01T04:57:26.295Z,100.00
2023-07-01T05:00:15.550Z,100.00
2023-07-01T05:02:44.337Z,100.00
2023-07-01T05:05:16.883Z,100.00
2023-07-01T05:07:46.442Z,100.00
2023-07-01T05:10:15.247Z,100.00
2023-07-01T05:12:52.710Z,100.00
2023-07-01T05:15:24.580Z,100.00
2023-07-01T05:17:53.455Z,100.00
2023-07-01T05:20:22.015Z,100.00
2023-07-01T05:22:50.253Z,100.00
2023-07-01T05:25:19.524Z,100.00
2023-07-01T05:27:47.904Z,100.00
2023-07-01T05:30:16.499Z,100.00
2023-07-01T05:32:45.758Z,100.00
2023-07-01T05:35:16.519Z,100.00
2023-07-01T05:37:53.079Z,100.00
2023-07-01T05:40:22.008Z,100.00
2023-07-01T05:42:54.208Z,100.00
2023-07-01T05:45:22.747Z,100.00
2023-07-01T05:47:52.935Z,100.00
2023-07-01T05:50:24.571Z,100.00
2023-07-01T05:52:53.595Z,100.00
2023-07-01T05:55:24.621Z,100.00
2023-07-01T05:57:55.709Z,100.00
2023-07-01T06:00:24.084Z,100.00
2023-07-01T06:02:52.844Z,100.00
2023-07-01T06:05:24.240Z,100.00
2023-07-01T06:07:52.606Z,99.98
2023-07-01T06:10:20.839Z,99.97
2023-07-01T06:12:49.243Z,99.94
2023-07-01T06:15:17.605Z,100.00
2023-07-01T06:17:49.378Z,100.00
2023-07-01T06:20:18.147Z,99.94
2023-07-01T06:22:48.272Z,99.94
2023-07-01T06:25:17.242Z,99.44
2023-07-01T06:27:45.443Z,99.41
2023-07-01T06:30:14.025Z,98.82
2023-07-01T06:32:43.238Z,97.98
2023-07-01T06:35:13.879Z,97.33
2023-07-01T06:37:42.363Z,97.07
2023-07-01T06:40:11.252Z,96.96
2023-07-01T06:42:40.127Z,96.68
2023-07-01T06:45:08.958Z,96.22
2023-07-01T06:47:37.308Z,95.95
2023-07-01T06:50:06.238Z,96.13
2023-07-01T06:52:34.509Z,95.83
2023-07-01T06:55:04.301Z,94.64
2023-07-01T06:57:32.710Z,93.42
2023-07-01T07:00:02.315Z,92.14
2023-07-01T07:02:30.585Z,90.34
2023-07-01T07:04:59.125Z,89.20
2023-07-01T07:07:27.861Z,88.86
2023-07-01T07:09:56.123Z,88.60
2023-07-01T07:12:24.378Z,88.38
2023-07-01T07:14:53.280Z,87.40
2023-07-01T07:17:21.659Z,87.35
2023-07-01T07:19:49.960Z,87.48
2023-07-01T07:22:18.879Z,86.50
2023-07-01T07:24:47.132Z,86.20
2023-07-01T07:27:15.526Z,85.74
2023-07-01T07:29:44.137Z,85.62
2023-07-01T07:32:12.511Z,85.95
2023-07-01T07:34:40.969Z,85.88
2023-07-01T07:37:09.733Z,85.19
2023-07-01T07:39:38.368Z,84.05
2023-07-01T07:42:06.922Z,84.11
2023-07-01T07:44:36.514Z,83.88
2023-07-01T07:47:05.379Z,83.82
2023-07-01T07:49:34.023Z,84.54
2023-07-01T07:52:02.870Z,84.15
2023-07-01T07:54:41.748Z,84.21
2023-07-01T07:57:09.964Z,83.72
2023-07-01T07:59:38.614Z,82.89
2023-07-01T08:02:07.278Z,82.25
2023-07-01T08:04:39.712Z,82.69
2023-07-01T08:07:09.299Z,83.09
2023-07-01T08:09:38.878Z,83.16
2023-07-01T08:12:08.031Z,83.42
2023-07-01T08:14:36.376Z,83.63
2023-07-01T08:17:05.261Z,83.53
2023-07-01T08:19:34.932Z,84.21
2023-07-01T08:22:03.681Z,84.64
2023-07-01T08:24:31.995Z,84.97
2023-07-01T08:27:01.090Z,85.40
2023-07-01T08:30:26.390Z,85.98
2023-07-01T08:32:56.174Z,86.58
2023-07-01T08:35:24.635Z,86.79
2023-07-01T08:37:53.126Z,86.62
2023-07-01T08:40:21.596Z,87.34
2023-07-01T08:42:52.575Z,87.87
2023-07-01T08:45:23.339Z,88.68
2023-07-01T08:47:54.876Z,89.43
2023-07-01T08:50:24.391Z,89.94
2023-07-01T08:53:04.497Z,90.37
2023-07-01T08:55:33.957Z,91.26
2023-07-01T08:58:04.049Z,91.32
2023-07-01T09:00:33.054Z,90.44
2023-07-01T09:03:04.446Z,89.82
2023-07-01T09:05:33.416Z,88.68
2023-07-01T09:08:01.679Z,88.22
2023-07-01T09:10:30.376Z,88.28
2023-07-01T09:13:14.340Z,88.74
2023-07-01T09:16:06.473Z,89.11
2023-07-01T09:18:36.188Z,89.42
2023-07-01T09:21:19.706Z,89.21
2023-07-01T09:23:49.011Z,88.44
2023-07-01T09:26:21.284Z,87.92
2023-07-01T09:28:53.608Z,87.70
2023-07-01T09:31:22.505Z,87.60
2023-07-01T09:34:01.509Z,86.43
2023-07-01T09:36:41.706Z,85.26
2023-07-01T09:39:10.306Z,83.33
2023-07-01T09:41:39.101Z,82.34
2023-07-01T09:44:20.373Z,82.32
2023-07-01T09:46:50.616Z,81.80
2023-07-01T09:49:22.701Z,81.12
2023-07-01T09:51:53.033Z,80.68
2023-07-01T09:54:27.938Z,79.86
2023-07-01T09:56:59.375Z,79.37
2023-07-01T09:59:28.970Z,79.42
2023-07-01T10:01:59.103Z,78.84
2023-07-01T10:04:30.856Z,78.15
2023-07-01T10:07:00.356Z,77.61
2023-07-01T10:09:30.495Z,76.72
2023-07-01T10:12:00.784Z,76.24
2023-07-01T10:14:33.769Z,75.83
2023-07-01T10:17:02.840Z,75.68
2023-07-01T10:19:36.457Z,75.02
2023-07-01T10:22:29.126Z,73.17
2023-07-01T10:25:08.406Z,72.46
2023-07-01T10:27:45.616Z,72.19
2023-07-01T10:30:15.270Z,71.67
2023-07-01T10:32:45.055Z,70.82
2023-07-01T10:35:17.593Z,70.11
2023-07-01T10:38:28.601Z,69.89
2023-07-01T10:40:57.528Z,67.80
2023-07-01T10:43:32.299Z,67.25
2023-07-01T10:46:25.873Z,64.01
2023-07-01T10:49:03.779Z,62.74
2023-07-01T10:51:47.637Z,63.96
2023-07-01T10:54:30.679Z,64.73
2023-07-01T10:57:17.458Z,64.11
2023-07-01T10:59:46.294Z,62.50
2023-07-01T11:02:39.310Z,62.84
2023-07-01T11:05:10.130Z,62.02
2023-07-01T11:07:43.088Z,60.47
2023-07-01T11:10:11.802Z,57.19
2023-07-01T11:12:40.822Z,55.01
2023-07-01T11:15:09.836Z,56.09
2023-07-01T11:17:52.556Z,57.77
2023-07-01T11:20:20.930Z,58.85
2023-07-01T11:22:50.811Z,57.95
2023-07-01T11:25:19.160Z,58.13
2023-07-01T11:27:47.469Z,57.81
2023-07-01T11:30:32.005Z,58.31
2023-07-01T11:33:13.995Z,59.16
2023-07-01T11:35:53.230Z,57.89
2023-07-01T11:38:27.864Z,56.67
2023-07-01T11:40:56.717Z,56.19
2023-07-01T11:43:25.485Z,54.65
2023-07-01T11:45:55.551Z,52.11
2023-07-01T11:48:32.361Z,51.51
2023-07-01T11:51:00.910Z,48.69
2023-07-01T11:53:39.045Z,48.57
2023-07-01T11:56:17.961Z,48.75
2023-07-01T12:01:42.463Z,47.61
2023-07-01T12:04:31.426Z,48.00
2023-07-01T12:07:08.087Z,47.44
2023-07-01T12:09:37.571Z,46.90
2023-07-01T12:12:06.477Z,46.94
2023-07-01T12:14:35.214Z,46.49
2023-07-01T12:17:03.630Z,45.92
2023-07-01T12:19:32.395Z,46.29
2023-07-01T12:22:01.533Z,46.32
2023-07-01T12:24:34.082Z,45.81
2023-07-01T12:27:04.882Z,46.33
2023-07-01T12:29:33.282Z,46.39
2023-07-01T12:32:02.134Z,46.03
2023-07-01T12:34:30.407Z,45.68
2023-07-01T12:36:59.531Z,45.90
2023-07-01T12:39:28.574Z,44.88
2023-07-01T12:41:59.769Z,43.99
2023-07-01T12:44:37.279Z,44.83
2023-07-01T12:47:07.617Z,45.50
2023-07-01T12:49:38.609Z,46.66
2023-07-01T12:52:06.914Z,45.62
2023-07-01T12:54:35.347Z,45.32
2023-07-01T12:57:04.551Z,45.41
2023-07-01T12:59:32.950Z,43.68
2023-07-01T13:02:01.248Z,43.61
2023-07-01T13:04:30.712Z,44.27
2023-07-01T13:06:59.109Z,43.07
2023-07-01T13:09:42.702Z,44.36
2023-07-01T13:12:14.378Z,43.75
2023-07-01T13:14:42.734Z,43.67
2023-07-01T13:17:11.413Z,43.37
2023-07-01T13:19:39.897Z,43.40
2023-07-01T13:22:09.622Z,43.07
2023-07-01T13:24:42.632Z,43.15
2023-07-01T13:27:16.004Z,42.95
2023-07-01T13:29:47.392Z,43.24
2023-07-01T13:32:16.036Z,43.42
2023-07-01T13:34:47.144Z,43.53
2023-07-01T13:37:21.891Z,43.66
2023-07-01T13:39:52.003Z,43.43
2023-07-01T13:42:26.544Z,43.88
2023-07-01T13:44:57.473Z,44.15
2023-07-01T13:47:30.105Z,44.09
2023-07-01T13:49:58.584Z,43.56
2023-07-01T13:52:27.200Z,44.64
2023-07-01T13:54:55.813Z,44.58
2023-07-01T13:57:30.133Z,44.03
2023-07-01T14:00:01.842Z,43.66
2023-07-01T14:02:41.179Z,42.86
2023-07-01T14:05:17.145Z,44.06
2023-07-01T14:07:45.857Z,44.50
2023-07-01T14:10:30.484Z,44.64
2023-07-01T14:12:59.902Z,44.62
2023-07-01T14:15:37.044Z,44.75
2023-07-01T14:18:14.861Z,45.12
2023-07-01T14:20:56.976Z,44.09
2023-07-01T14:23:33.580Z,42.52
2023-07-01T14:26:04.163Z,43.64
2023-07-01T14:28:33.203Z,43.85
2023-07-01T14:31:12.847Z,43.06
2023-07-01T14:33:51.931Z,44.29
2023-07-01T14:36:27.601Z,44.59
2023-07-01T14:38:56.880Z,44.63
2023-07-01T14:41:27.722Z,44.25
2023-07-01T14:44:01.927Z,43.86
2023-07-01T14:46:35.407Z,43.78
2023-07-01T14:49:07.510Z,44.32
2023-07-01T14:51:40.012Z,44.23
2023-07-01T14:54:08.497Z,44.36
2023-07-01T14:56:37.046Z,44.75
2023-07-01T14:59:05.295Z,44.41
2023-07-01T15:01:33.749Z,44.13
2023-07-01T15:04:03.043Z,44.28
2023-07-01T15:06:31.516Z,44.10
2023-07-01T15:08:59.944Z,44.78
2023-07-01T15:11:28.875Z,44.16
2023-07-01T15:13:57.964Z,44.11
2023-07-01T15:16:27.546Z,43.62
2023-07-01T15:18:55.780Z,43.82
2023-07-01T15:21:24.660Z,44.01
2023-07-01T15:24:06.409Z,43.46
2023-07-01T15:26:34.805Z,43.36
2023-07-01T15:29:03.414Z,43.19
2023-07-01T15:31:31.744Z,43.45
2023-07-01T15:34:00.078Z,43.17
2023-07-01T15:36:28.898Z,43.39
2023-07-01T15:38:57.337Z,43.62
2023-07-01T15:41:41.548Z,43.54
2023-07-01T15:44:14.640Z,43.44
2023-07-01T15:46:43.222Z,43.76
2023-07-01T15:49:11.629Z,43.23
2023-07-01T15:51:41.659Z,43.84
2023-07-01T15:54:12.588Z,43.95
2023-07-01T15:56:41.301Z,43.39
2023-07-01T15:59:10.898Z,43.68
2023-07-01T16:01:39.893Z,43.88
2023-07-01T16:04:11.316Z,43.98
2023-07-01T16:06:39.821Z,43.95
2023-07-01T16:09:43.235Z,44.13
2023-07-01T16:12:33.463Z,43.75
2023-07-01T16:15:09.111Z,43.92
2023-07-01T16:17:44.177Z,43.68
2023-07-01T16:20:32.924Z,44.02
2023-07-01T16:23:11.758Z,44.14
2023-07-01T16:25:40.882Z,44.39
2023-07-01T16:28:09.506Z,44.34
2023-07-01T16:30:41.396Z,44.34
2023-07-01T16:33:22.457Z,44.45
2023-07-01T16:35:53.540Z,44.48
2023-07-01T16:38:30.629Z,44.81
2023-07-01T16:40:59.576Z,44.94
2023-07-01T16:43:41.227Z,45.07
2023-07-01T16:46:13.657Z,45.17
2023-07-01T16:48:53.377Z,45.35
2023-07-01T16:51:22.403Z,45.45
2023-07-01T16:54:18.392Z,45.69
2023-07-01T16:56:57.683Z,45.69
2023-07-01T16:59:47.196Z,45.84
2023-07-01T17:02:32.094Z,46.10
2023-07-01T17:05:22.993Z,46.08
2023-07-01T17:07:51.345Z,46.55
2023-07-01T17:10:38.599Z,46.44
2023-07-01T17:13:20.509Z,46.65
2023-07-01T17:15:53.597Z,46.92
2023-07-01T17:18:27.529Z,46.89
2023-07-01T17:20:57.228Z,46.84
2023-07-01T17:23:26.242Z,46.87
2023-07-01T17:25:55.622Z,47.26
2023-07-01T17:28:23.860Z,47.37
2023-07-01T17:30:52.688Z,47.43
2023-07-01T17:33:21.216Z,47.40
2023-07-01T17:35:49.980Z,47.67
2023-07-01T17:38:18.661Z,47.80
2023-07-01T17:40:46.944Z,47.97
2023-07-01T17:43:15.748Z,47.97
2023-07-01T17:45:44.051Z,48.11
2023-07-01T17:48:12.786Z,48.31
2023-07-01T17:50:41.437Z,48.29
2023-07-01T17:53:09.820Z,48.54
2023-07-01T17:55:38.244Z,48.81
2023-07-01T17:58:08.022Z,48.78
2023-07-01T18:00:36.720Z,49.04
2023-07-01T18:03:05.434Z,49.08
2023-07-01T18:05:37.167Z,49.09
2023-07-01T18:08:32.197Z,49.17
2023-07-01T18:11:00.456Z,49.24
2023-07-01T18:13:32.552Z,49.45
2023-07-01T18:16:04.423Z,49.59
2023-07-01T18:18:55.963Z,49.63
2023-07-01T18:21:46.213Z,49.78
2023-07-01T18:24:19.008Z,49.87
2023-07-01T18:26:49.704Z,49.97
2023-07-01T18:29:21.089Z,50.10
2023-07-01T18:31:49.428Z,50.11
2023-07-01T18:34:17.645Z,50.34
2023-07-01T18:36:46.288Z,50.41
2023-07-01T18:39:15.185Z,50.49
2023-07-01T18:41:43.688Z,50.52
2023-07-01T18:44:12.072Z,50.80
2023-07-01T18:46:40.996Z,50.85
2023-07-01T18:49:09.433Z,51.10
2023-07-01T18:51:37.712Z,51.34
2023-07-01T18:54:06.037Z,51.48
2023-07-01T18:56:36.234Z,51.70
2023-07-01T18:59:07.261Z,51.72
2023-07-01T19:01:36.518Z,52.15
2023-07-01T19:04:05.249Z,52.36
2023-07-01T19:06:34.062Z,52.30
2023-07-01T19:09:02.401Z,52.46
2023-07-01T19:11:30.848Z,52.44
2023-07-01T19:13:59.329Z,52.64
2023-07-01T19:16:31.091Z,52.83
2023-07-01T19:19:00.194Z,53.11
2023-07-01T19:21:28.651Z,53.11
2023-07-01T19:23:57.359Z,53.15
2023-07-01T19:26:27.445Z,53.53
2023-07-01T19:28:55.816Z,53.53
2023-07-01T19:31:24.726Z,53.24
2023-07-01T19:33:53.117Z,53.14
2023-07-01T19:36:21.626Z,53.46
2023-07-01T19:38:51.821Z,53.31
2023-07-01T19:41:20.449Z,53.36
2023-07-01T19:43:52.180Z,53.46
2023-07-01T19:46:20.824Z,53.40
2023-07-01T19:48:51.704Z,53.46
2023-07-01T19:51:20.590Z,53.51
2023-07-01T19:53:49.688Z,53.66
2023-07-01T19:56:18.171Z,53.84
2023-07-01T19:58:46.601Z,53.94
2023-07-01T20:01:14.904Z,53.98
2023-07-01T20:03:43.389Z,54.07
2023-07-01T20:06:12.035Z,54.04
2023-07-01T20:08:43.310Z,54.11
2023-07-01T20:11:11.728Z,54.24
2023-07-01T20:13:40.176Z,54.30
2023-07-01T20:16:08.805Z,54.28
2023-07-01T20:18:37.575Z,54.32
2023-07-01T20:21:05.830Z,54.39
2023-07-01T20:23:36.705Z,54.61
2023-07-01T20:26:07.834Z,54.81
2023-07-01T20:28:38.758Z,54.92
2023-07-01T20:31:10.130Z,54.91
2023-07-01T20:33:41.338Z,55.21
2023-07-01T20:36:09.895Z,55.24
2023-07-01T20:38:38.330Z,55.33
2023-07-01T20:41:06.928Z,55.54
2023-07-01T20:43:35.971Z,55.62
2023-07-01T20:46:04.240Z,55.89
2023-07-01T20:48:33.010Z,55.93
2023-07-01T20:51:03.826Z,55.83
2023-07-01T20:53:32.681Z,55.25
2023-07-01T20:56:01.589Z,55.02
2023-07-01T20:58:30.031Z,54.58
2023-07-01T21:00:58.400Z,54.76
2023-07-01T21:03:26.856Z,55.06
2023-07-01T21:06:04.741Z,55.41
2023-07-01T21:08:33.702Z,55.89
2023-07-01T21:11:02.637Z,56.07
2023-07-01T21:13:31.456Z,56.21
2023-07-01T21:16:00.160Z,56.29
2023-07-01T21:18:31.707Z,56.64
2023-07-01T21:21:02.736Z,57.07
2023-07-01T21:23:33.773Z,57.26
2023-07-01T21:26:04.491Z,57.48
2023-07-01T21:28:38.880Z,57.69
2023-07-01T21:31:10.324Z,58.02
2023-07-01T21:33:39.362Z,58.07
2023-07-01T21:36:08.296Z,58.23
2023-07-01T21:38:36.642Z,58.29
2023-07-01T21:41:05.116Z,58.55
2023-07-01T21:43:35.588Z,58.63
2023-07-01T21:46:07.484Z,58.86
2023-07-01T21:48:37.919Z,59.22
2023-07-01T21:51:11.167Z,59.28
2023-07-01T21:53:45.423Z,59.29
2023-07-01T21:56:15.817Z,59.68
2023-07-01T21:58:47.252Z,59.84
2023-07-01T22:01:37.596Z,60.22
2023-07-01T22:04:07.812Z,60.40
2023-07-01T22:06:49.098Z,60.33
2023-07-01T22:09:18.300Z,60.62
2023-07-01T22:11:46.798Z,60.88
2023-07-01T22:14:18.253Z,61.07
2023-07-01T22:17:09.766Z,61.17
2023-07-01T22:20:01.388Z,61.75
2023-07-01T22:22:33.516Z,61.97
2023-07-01T22:25:01.975Z,62.16
2023-07-01T22:27:30.553Z,62.46
2023-07-01T22:29:58.937Z,62.63
2023-07-01T22:32:27.964Z,62.95
2023-07-01T22:34:56.570Z,63.28
2023-07-01T22:37:35.383Z,63.53
2023-07-01T22:40:03.784Z,63.76
2023-07-01T22:42:32.459Z,64.00
2023-07-01T22:45:04.504Z,64.24
2023-07-01T22:47:33.454Z,64.74
2023-07-01T22:50:22.707Z,64.86
2023-07-01T22:52:52.366Z,65.73
2023-07-01T22:55:22.181Z,66.27
2023-07-01T22:58:14.332Z,66.74
2023-07-01T23:00:44.738Z,67.32
2023-07-01T23:03:28.423Z,67.98
2023-07-01T23:05:57.399Z,68.62
2023-07-01T23:08:46.699Z,69.27
2023-07-01T23:11:15.596Z,69.93
2023-07-01T23:13:44.573Z,70.43
2023-07-01T23:16:13.342Z,70.94
2023-07-01T23:18:42.038Z,72.02
2023-07-01T23:21:10.358Z,73.11
2023-07-01T23:23:39.019Z,74.03
2023-07-01T23:26:07.729Z,75.14
2023-07-01T23:28:36.195Z,75.92
2023-07-01T23:31:05.140Z,76.98
2023-07-01T23:33:43.323Z,77.83
2023-07-01T23:36:13.922Z,79.02
2023-07-01T23:38:42.306Z,79.32
2023-07-01T23:41:13.896Z,80.04
2023-07-01T23:43:42.133Z,80.76
2023-07-01T23:46:12.947Z,81.31
2023-07-01T23:48:43.320Z,81.51
2023-07-01T23:51:12.822Z,81.79
2023-07-01T23:53:41.262Z,81.88
2023-07-01T23:56:13.135Z,82.57
2023-07-01T23:58:41.540Z,83.34
